M I D A S
Marine Information and Data Acquisition System
Tripno 1698 of the Zeeleeuw from 2009-05-25 11:32:49 to 2009-05-25 13:15:00
Back to CruiseResearch ActivitiesStationsMapUnderway DataData graphs

EquipmentUnitsComments
TimeDGPSUTC
LatitudeDGPSDM.mWGS84
LongitudeDGPSDM.mWGS84
SpeedMeteo Stationm/sRelative wind speed
DirectionMeteo StationdegRelative wind direction
TemperatureMeteo Stationdeg CelciusAir temperature
PressureMeteo StationPaAtmospheric pressure
HumidityMeteo Station%Relative humidity
Missing or incorrect values are displayed as -999
Metereological data collected by the RV Zeeleeuw from 2009-05-25 07:24:38 to 2009-05-25 13:27:20
Time Latitude Longitude Speed Direction Temperature Pressure Humidity
2009-05-25 07:25 51°13.673 2°55.92 0.2 343 17.5 101760 69
2009-05-25 07:26 51°13.693 2°55.862 2.3 322 17.6 101760 68
2009-05-25 07:27 51°13.702 2°55.79 2.3 22 17.6 101760 68
2009-05-25 07:28 51°13.706 2°55.739 3.7 323 17.6 101760 67
2009-05-25 07:29 51°13.713 2°55.75 3.1 5 17.4 101750 67
2009-05-25 07:30 51°13.71 2°55.74 3.1 17 17.2 101750 68
2009-05-25 07:31 51°13.758 2°55.702 2 2 17.2 101760 69
2009-05-25 07:32 51°13.843 2°55.627 1.5 282 17.1 101760 70
2009-05-25 07:33 51°13.942 2°55.553 3.1 5 17.1 101760 70
2009-05-25 07:34 51°14.055 2°55.467 4.4 352 17 101760 71
2009-05-25 07:35 51°14.178 2°55.37 2.9 354 16.9 101760 71
2009-05-25 07:36 51°14.284 2°55.225 4.2 355 16.9 101760 71
2009-05-25 07:37 51°14.364 2°55.033 3.3 6 16.9 101750 72
2009-05-25 07:38 51°14.433 2°54.818 4.2 351 16.8 101750 72
2009-05-25 07:39 51°14.519 2°54.591 4.2 353 16.7 101750 73
2009-05-25 07:40 51°14.585 2°54.333 3.8 351 16.6 101750 75
2009-05-25 07:41 51°14.64 2°54.064 3.9 350 16.4 101760 78
2009-05-25 07:42 51°14.676 2°53.756 4.7 352 16.2 101760 82
2009-05-25 07:43 51°14.711 2°53.435 5.2 357 15.9 101760 84
2009-05-25 07:44 51°14.748 2°53.112 4.4 355 15.6 101760 86
2009-05-25 07:45 51°14.79 2°52.787 4.4 355 15.4 101760 85
2009-05-25 07:46 51°14.834 2°52.457 4.2 353 15.3 101760 86
2009-05-25 07:47 51°14.878 2°52.138 4.6 356 15.3 101760 88
2009-05-25 07:48 51°14.923 2°51.812 4.6 355 15.2 101760 88
2009-05-25 07:49 51°14.931 2°51.473 3 356 15.1 101770 89
2009-05-25 07:50 51°14.914 2°51.129 3.1 357 15.1 101770 89
2009-05-25 07:51 51°14.899 2°50.916 3 31 15.1 101770 89
2009-05-25 07:52 51°14.893 2°50.821 3.2 31 15.1 101770 89
2009-05-25 07:53 51°14.89 2°50.744 3.9 22 15.2 101780 89
2009-05-25 07:54 51°14.899 2°50.681 3.8 3 15.2 101780 90
2009-05-25 07:55 51°14.928 2°50.631 5.5 353 15.2 101770 90
2009-05-25 07:56 51°14.968 2°50.609 5.4 283 15.1 101770 90
2009-05-25 07:57 51°14.993 2°50.622 5.4 277 15.1 101770 91
2009-05-25 07:58 51°15.003 2°50.654 5.8 281 15.1 101770 90
2009-05-25 07:59 51°15.008 2°50.703 5.5 284 15.2 101760 90
2009-05-25 08:00 51°15.007 2°50.763 5.8 283 15.2 101760 90
2009-05-25 08:01 51°14.993 2°50.829 5.5 278 15.3 101760 90
2009-05-25 08:02 51°14.962 2°50.892 5.6 285 15.3 101760 89
2009-05-25 08:03 51°14.915 2°50.945 4.8 282 15.3 101760 89
2009-05-25 08:04 51°14.846 2°50.964 4.2 279 15.3 101770 89
2009-05-25 08:05 51°14.775 2°50.937 2.9 286 15.4 101770 89
2009-05-25 08:06 51°14.709 2°50.881 1.8 77 15.4 101780 89
2009-05-25 08:07 51°14.654 2°50.806 1.4 74 15.5 101780 89
2009-05-25 08:08 51°14.608 2°50.719 1.3 81 15.5 101780 89
2009-05-25 08:09 51°14.565 2°50.626 1.4 74 15.6 101790 89
2009-05-25 08:10 51°14.529 2°50.534 1.1 45 15.6 101790 88
2009-05-25 08:11 51°14.498 2°50.442 1.1 36 15.6 101800 88
2009-05-25 08:12 51°14.466 2°50.351 1.3 36 15.6 101800 89
2009-05-25 08:13 51°14.435 2°50.26 1.2 34 15.6 101800 88
2009-05-25 08:14 51°14.402 2°50.169 1.1 32 15.7 101800 89
2009-05-25 08:15 51°14.37 2°50.077 0.9 -999 15.7 101800 88
2009-05-25 08:16 51°14.338 2°49.984 0.9 -999 15.7 101800 88
2009-05-25 08:17 51°14.305 2°49.891 1 32 15.7 101800 88
2009-05-25 08:18 51°14.272 2°49.797 1.1 32 15.7 101800 88
2009-05-25 08:19 51°14.24 2°49.705 1 -999 15.7 101800 88
2009-05-25 08:20 51°14.206 2°49.611 0.9 -999 15.7 101800 88
2009-05-25 08:21 51°14.173 2°49.52 1 -999 15.7 101810 88
2009-05-25 08:22 51°14.139 2°49.428 1.1 23 15.7 101800 88
2009-05-25 08:23 51°14.106 2°49.337 1.3 20 15.7 101810 88
2009-05-25 08:24 51°14.073 2°49.247 1.4 16 15.7 101810 88
2009-05-25 08:25 51°14.04 2°49.157 1.5 11 15.7 101820 88
2009-05-25 08:26 51°14.006 2°49.07 1.7 10 15.6 101820 88
2009-05-25 08:27 51°13.971 2°48.982 1.4 11 15.6 101830 89
2009-05-25 08:28 51°13.94 2°48.899 1.7 10 15.5 101830 89
2009-05-25 08:29 51°13.916 2°48.814 2.1 354 15.4 101840 88
2009-05-25 08:30 51°13.904 2°48.729 2.6 -999 15.4 101850 89
2009-05-25 08:31 51°13.898 2°48.652 2.9 282 15.4 101860 90
2009-05-25 08:32 51°13.892 2°48.586 2.6 284 15.4 101870 90
2009-05-25 08:33 51°13.883 2°48.529 3.5 283 15.4 101890 90
2009-05-25 08:34 51°13.875 2°48.479 4.3 285 15.4 101900 90
2009-05-25 08:35 51°13.865 2°48.437 4.4 -999 15.4 101920 90
2009-05-25 08:36 51°13.856 2°48.401 5 281 15.4 101930 91
2009-05-25 08:37 51°13.845 2°48.369 7 285 15.4 101940 91
2009-05-25 08:38 51°13.833 2°48.342 6.7 279 15.5 101940 91
2009-05-25 08:39 51°13.821 2°48.318 6 279 15.4 101940 91
2009-05-25 08:40 51°13.807 2°48.295 4.5 286 15.4 101940 91
2009-05-25 08:41 51°13.791 2°48.272 4.5 285 15.4 101930 91
2009-05-25 08:42 51°13.775 2°48.249 4.4 285 15.4 101920 91
2009-05-25 08:43 51°13.758 2°48.226 4.9 280 15.3 101920 91
2009-05-25 08:44 51°13.74 2°48.204 3.8 282 15.3 101920 91
2009-05-25 08:45 51°13.721 2°48.183 2.8 285 15.3 101920 91
2009-05-25 08:46 51°13.702 2°48.161 3.4 286 15.3 101930 91
2009-05-25 08:47 51°13.682 2°48.138 5 278 15.3 101940 91
2009-05-25 08:48 51°13.662 2°48.118 5.6 280 15.2 101950 92
2009-05-25 08:49 51°13.642 2°48.098 5.9 77 15.2 101960 92
2009-05-25 08:50 51°13.622 2°48.079 6.4 277 15.1 101960 92
2009-05-25 08:51 51°13.602 2°48.06 5.3 81 15.1 101950 92
2009-05-25 08:52 51°13.582 2°48.04 3.3 -999 15.1 101940 92
2009-05-25 08:53 51°13.563 2°48.019 3.6 289 15.1 101930 92
2009-05-25 08:54 51°13.542 2°47.998 4.6 -999 15.1 101930 92
2009-05-25 08:55 51°13.522 2°47.977 4.9 75 15.1 101940 92
2009-05-25 08:56 51°13.504 2°47.961 5.8 -999 15.1 101950 92
2009-05-25 08:57 51°13.505 2°47.968 6 13 15.1 101960 92
2009-05-25 08:58 51°13.516 2°47.981 6.1 -999 15.1 101960 92
2009-05-25 08:59 51°13.535 2°48.006 4.9 285 15.1 101950 91
2009-05-25 09:00 51°13.553 2°48.045 4.9 11 15.1 101950 91
2009-05-25 09:01 51°13.569 2°48.088 4.1 277 15.1 101950 91
2009-05-25 09:02 51°13.606 2°48.178 3.3 -999 15.1 101950 90
2009-05-25 09:03 51°13.665 2°48.315 3.6 280 15.2 101950 90
2009-05-25 09:04 51°13.737 2°48.466 4.1 -999 15.4 101960 90
2009-05-25 09:05 51°13.798 2°48.632 2.2 281 15.4 101960 89
2009-05-25 09:06 51°13.855 2°48.803 2.8 -999 15.5 101960 89
2009-05-25 09:07 51°13.911 2°48.973 2.6 284 15.7 101950 89
2009-05-25 09:08 51°13.966 2°49.143 5 278 15.7 101940 89
2009-05-25 09:09 51°14.023 2°49.313 3.9 285 15.8 101930 88
2009-05-25 09:10 51°14.081 2°49.481 3.8 285 15.8 101920 87
2009-05-25 09:11 51°14.143 2°49.647 3.4 286 15.8 101920 86
2009-05-25 09:12 51°14.204 2°49.815 3.5 279 15.8 101920 86
2009-05-25 09:13 51°14.265 2°49.981 5.2 281 15.8 101920 86
2009-05-25 09:14 51°14.325 2°50.149 4.7 279 15.9 101910 85
2009-05-25 09:15 51°14.386 2°50.319 5.2 278 15.8 101910 84
2009-05-25 09:16 51°14.445 2°50.488 6.4 286 15.8 101910 85
2009-05-25 09:17 51°14.503 2°50.659 4.7 285 15.9 101900 84
2009-05-25 09:18 51°14.546 2°50.783 4.8 279 16 101900 84
2009-05-25 09:19 51°14.586 2°50.921 3.8 283 16 101900 84
2009-05-25 09:20 51°14.605 2°51.091 2.3 286 16 101900 82
2009-05-25 09:21 51°14.619 2°51.278 3.3 279 16 101890 82
2009-05-25 09:22 51°14.637 2°51.467 3.5 -999 16 101890 82
2009-05-25 09:23 51°14.654 2°51.66 4 -999 15.9 101890 81
2009-05-25 09:24 51°14.673 2°51.852 2.7 279 15.9 101890 81
2009-05-25 09:25 51°14.693 2°52.05 2.8 -999 15.9 101880 81
2009-05-25 09:26 51°14.711 2°52.25 4.7 285 15.9 101880 81
2009-05-25 09:27 51°14.73 2°52.45 5.1 285 16 101870 81
2009-05-25 09:28 51°14.749 2°52.651 5 285 16.1 101870 81
2009-05-25 09:29 51°14.767 2°52.835 5 279 16.1 101860 81
2009-05-25 09:30 51°14.784 2°52.989 3.4 281 16.2 101850 81
2009-05-25 09:31 51°14.8 2°53.168 3.9 284 16.2 101840 81
2009-05-25 09:32 51°14.818 2°53.351 3.8 279 16.2 101840 81
2009-05-25 09:33 51°14.836 2°53.535 5.9 280 16.1 101830 81
2009-05-25 09:34 51°14.843 2°53.723 5.8 284 16 101820 82
2009-05-25 09:35 51°14.828 2°53.915 4.6 281 16 101820 82
2009-05-25 09:36 51°14.776 2°54.09 3.7 -999 16 101820 82
2009-05-25 09:37 51°14.715 2°54.262 4.1 278 16 101820 82
2009-05-25 09:38 51°14.656 2°54.436 3.8 -999 16.1 101820 83
2009-05-25 09:39 51°14.583 2°54.599 3.1 278 16.1 101830 83
2009-05-25 09:40 51°14.505 2°54.765 3.2 -999 16.2 101830 83
2009-05-25 09:41 51°14.424 2°54.93 2.3 279 16.2 101830 83
2009-05-25 09:42 51°14.343 2°55.111 3 -999 16.2 101830 82
2009-05-25 09:43 51°14.246 2°55.285 2.7 278 16.1 101830 83
2009-05-25 09:44 51°14.134 2°55.428 2.1 -999 16.2 101820 83
2009-05-25 09:45 51°14.02 2°55.513 0.4 281 16.2 101820 83
2009-05-25 09:46 51°13.928 2°55.573 0.2 -999 16.3 101820 84
2009-05-25 09:47 51°13.836 2°55.634 0.4 277 16.5 101820 83
2009-05-25 09:48 51°13.762 2°55.7 1.7 -999 16.6 101810 84
2009-05-25 09:49 51°13.716 2°55.795 3.6 283 16.7 101810 82
2009-05-25 09:50 51°13.682 2°55.891 1 -999 16.7 101800 79
2009-05-25 09:51 51°13.666 2°55.949 3.5 78 16.7 101790 79
2009-05-25 09:52 51°13.662 2°55.958 2.9 24 16.7 101790 77
2009-05-25 09:53 51°13.663 2°55.959 2.1 286 16.7 101780 77
2009-05-25 09:54 51°13.663 2°55.959 2.2 -999 16.8 101770 77
2009-05-25 09:55 51°13.663 2°55.959 1.4 89 16.9 101760 76
2009-05-25 09:56 51°13.664 2°55.959 1.6 21 17 101760 76
2009-05-25 09:57 51°13.664 2°55.959 2.1 82 17.1 101750 75
2009-05-25 09:58 51°13.664 2°55.959 1.3 23 17.2 101750 75
2009-05-25 09:59 51°13.663 2°55.959 1.3 281 17.3 101740 75
2009-05-25 10:00 51°13.664 2°55.958 2 -999 17.4 101730 73
2009-05-25 10:01 51°13.664 2°55.959 3.3 249 17.6 101730 73
2009-05-25 10:02 51°13.664 2°55.959 3.9 -999 17.7 101730 71
2009-05-25 10:03 51°13.664 2°55.959 0.7 323 17.7 101730 70
2009-05-25 10:04 51°13.664 2°55.959 1.2 -999 17.8 101730 70
2009-05-25 10:05 51°13.664 2°55.959 2.8 255 17.8 101730 70
2009-05-25 10:06 51°13.664 2°55.959 0.6 257 17.9 101730 69
2009-05-25 10:07 51°13.664 2°55.958 1.9 264 18 101730 69
2009-05-25 10:08 51°13.664 2°55.959 1.2 -999 18.2 101720 69
2009-05-25 10:09 51°13.664 2°55.959 0.8 286 18.3 101720 68
2009-05-25 10:10 51°13.664 2°55.96 3.6 251 18.3 101710 67
2009-05-25 10:11 51°13.664 2°55.959 1.8 79 18.3 101700 67
2009-05-25 10:12 51°13.664 2°55.959 3.4 247 18.3 101700 67
2009-05-25 10:13 51°13.661 2°55.96 2.5 279 18.3 101700 66
2009-05-25 10:14 51°13.662 2°55.959 2.7 29 18.2 101700 67
2009-05-25 10:15 51°13.662 2°55.959 1.7 278 18.2 101700 67
2009-05-25 10:16 51°13.662 2°55.959 3.6 -999 18.2 101690 68
2009-05-25 10:17 51°13.662 2°55.959 4.2 21 18.1 101690 68
2009-05-25 10:18 51°13.662 2°55.959 4 -999 18 101690 68
2009-05-25 10:19 51°13.663 2°55.959 2.6 247 17.9 101680 69
2009-05-25 10:20 51°13.663 2°55.958 3.1 248 17.9 101670 69
2009-05-25 10:21 51°13.662 2°55.958 1.9 251 17.8 101670 69
2009-05-25 10:22 51°13.662 2°55.958 2.6 278 17.8 101660 69
2009-05-25 10:23 51°13.662 2°55.958 2.4 26 17.9 101660 69
2009-05-25 10:24 51°13.662 2°55.959 3.3 -999 17.9 101650 69
2009-05-25 10:25 51°13.662 2°55.959 2.3 -999 17.9 101640 69
2009-05-25 10:26 51°13.663 2°55.959 2.2 286 17.9 101640 70
2009-05-25 10:27 51°13.663 2°55.959 3.2 -999 17.9 101630 70
2009-05-25 10:28 51°13.664 2°55.959 3.2 285 17.9 101630 70
2009-05-25 10:29 51°13.662 2°55.959 4.2 -999 17.9 101620 71
2009-05-25 10:30 51°13.663 2°55.959 3.7 -999 17.9 101610 70
2009-05-25 10:31 51°13.664 2°55.959 3.8 279 17.9 101610 71
2009-05-25 10:32 51°13.664 2°55.959 4 -999 17.9 101600 71
2009-05-25 10:33 51°13.666 2°55.958 3.9 24 17.9 101590 71
2009-05-25 10:34 51°13.664 2°55.959 3.4 -999 17.9 101580 71
2009-05-25 10:35 51°13.665 2°55.958 4.3 280 17.9 101570 71
2009-05-25 10:36 51°13.664 2°55.959 5.4 -999 17.9 101560 71
2009-05-25 10:37 51°13.662 2°55.959 5.1 286 18 101550 70
2009-05-25 10:38 51°13.663 2°55.959 4.3 -999 18 101530 70
2009-05-25 10:39 51°13.662 2°55.959 6.7 22 17.9 101520 70
2009-05-25 10:40 51°13.662 2°55.959 5.2 -999 18 101510 71
2009-05-25 10:41 51°13.66 2°55.96 5 283 18 101490 71
2009-05-25 10:42 51°13.661 2°55.959 6.9 -999 17.9 101480 71
2009-05-25 10:43 51°13.662 2°55.959 5.6 281 17.9 101480 70
2009-05-25 10:44 51°13.662 2°55.959 3.7 26 17.9 101470 71
2009-05-25 10:45 51°13.662 2°55.959 4.9 284 17.9 101460 72
2009-05-25 10:46 51°13.662 2°55.959 6.7 -999 17.9 101450 72
2009-05-25 10:47 51°13.662 2°55.959 3.2 -999 17.9 101440 72
2009-05-25 10:48 51°13.662 2°55.958 5.9 242 17.9 101440 72
2009-05-25 10:49 51°13.663 2°55.959 8 -999 17.9 101420 72
2009-05-25 10:50 51°13.663 2°55.958 7.6 281 17.8 101410 72
2009-05-25 10:51 51°13.663 2°55.959 10.2 26 17.8 101410 72
2009-05-25 10:52 51°13.662 2°55.958 5.9 317 17.7 101400 72
2009-05-25 10:53 51°13.663 2°55.958 3.1 322 17.7 101390 73
2009-05-25 10:54 51°13.663 2°55.958 4.8 20 17.7 101380 74
2009-05-25 10:55 51°13.663 2°55.959 9.2 25 17.7 101370 74
2009-05-25 10:56 51°13.663 2°55.959 9.9 26 17.7 101350 73
2009-05-25 10:57 51°13.663 2°55.959 9 21 17.7 101340 74
2009-05-25 10:58 51°13.663 2°55.959 7.3 322 17.7 101330 74
2009-05-25 10:59 51°13.661 2°55.958 9.8 22 17.7 101310 74
2009-05-25 11:00 51°13.661 2°55.958 8.8 25 17.8 101300 74
2009-05-25 11:01 51°13.662 2°55.958 9.9 24 17.7 101280 74
2009-05-25 11:02 51°13.662 2°55.958 7.9 317 17.7 101270 73
2009-05-25 11:03 51°13.662 2°55.958 9.4 26 17.7 101250 74
2009-05-25 11:04 51°13.662 2°55.958 11.2 22 17.7 101250 73
2009-05-25 11:05 51°13.663 2°55.959 8.6 316 17.7 101250 73
2009-05-25 11:06 51°13.663 2°55.959 7.5 280 17.8 101250 73
2009-05-25 11:07 51°13.663 2°55.959 7.3 316 17.8 101240 73
2009-05-25 11:08 51°13.663 2°55.959 7.1 286 17.7 101260 73
2009-05-25 11:09 51°13.663 2°55.959 3.9 319 17.8 101250 73
2009-05-25 11:10 51°13.663 2°55.959 9 317 17.8 101280 73
2009-05-25 11:11 51°13.663 2°55.959 5.9 21 17.8 101290 73
2009-05-25 11:12 51°13.664 2°55.959 4 24 17.8 101290 74
2009-05-25 11:13 51°13.664 2°55.959 7 25 17.8 101320 74
2009-05-25 11:14 51°13.664 2°55.958 6.1 316 17.9 101310 74
2009-05-25 11:15 51°13.663 2°55.959 6 20 17.9 101310 73
2009-05-25 11:16 51°13.663 2°55.959 5.8 25 17.9 101310 72
2009-05-25 11:17 51°13.663 2°55.958 4.3 21 17.9 101320 71
2009-05-25 11:18 51°13.663 2°55.957 6.3 243 18 101320 71
2009-05-25 11:19 51°13.662 2°55.959 5 -999 18 101330 71
2009-05-25 11:20 51°13.662 2°55.959 6.6 321 18.1 101330 71
2009-05-25 11:21 51°13.669 2°55.939 4.4 279 18.1 101340 71
2009-05-25 11:22 51°13.686 2°55.879 6 25 18.1 101350 71
2009-05-25 11:23 51°13.71 2°55.805 1.9 29 18.1 101340 71
2009-05-25 11:24 51°13.746 2°55.732 1.4 19 18.2 101350 71
2009-05-25 11:25 51°13.793 2°55.673 1.6 251 18.3 101360 71
2009-05-25 11:26 51°13.844 2°55.643 2.7 277 18.3 101360 71
2009-05-25 11:27 51°13.893 2°55.637 3.7 30 18.4 101360 71
2009-05-25 11:28 51°13.92 2°55.65 3.8 -999 18.4 101360 70
2009-05-25 11:29 51°13.918 2°55.623 2.6 20 18.4 101350 71
2009-05-25 11:30 51°13.947 2°55.566 4.1 -999 18.4 101350 70
2009-05-25 11:31 51°14.034 2°55.489 5.6 -999 18.4 101350 70
2009-05-25 11:32 51°14.145 2°55.398 6.2 9 18.3 101340 70
2009-05-25 11:33 51°14.255 2°55.269 4.1 11 18.3 101330 71
2009-05-25 11:34 51°14.345 2°55.083 3.1 26 18.3 101330 70
2009-05-25 11:35 51°14.451 2°54.904 5.1 28 18.3 101330 70
2009-05-25 11:36 51°14.56 2°54.717 5.2 29 18.2 101320 70
2009-05-25 11:37 51°14.666 2°54.492 4.4 -999 18.1 101310 71
2009-05-25 11:38 51°14.758 2°54.242 3.4 36 18 101320 72
2009-05-25 11:39 51°14.824 2°53.973 3.2 -999 18 101320 73
2009-05-25 11:40 51°14.863 2°53.689 2.8 30 17.9 101310 74
2009-05-25 11:41 51°14.886 2°53.405 3.9 32 17.9 101310 74
2009-05-25 11:42 51°14.914 2°53.121 3 32 17.8 101310 74
2009-05-25 11:43 51°14.938 2°52.835 3.2 20 17.8 101320 75
2009-05-25 11:44 51°14.95 2°52.547 2.7 16 17.7 101330 76
2009-05-25 11:45 51°14.957 2°52.267 2.7 11 17.6 101330 77
2009-05-25 11:46 51°14.965 2°51.978 2.4 2 17.4 101330 78
2009-05-25 11:47 51°14.947 2°51.696 2.7 354 17.4 101340 79
2009-05-25 11:48 51°14.919 2°51.42 3.5 350 17.2 101340 80
2009-05-25 11:49 51°14.916 2°51.138 5.4 354 17.1 101340 81
2009-05-25 11:50 51°14.885 2°50.897 2.5 16 17 101340 82
2009-05-25 11:51 51°14.821 2°50.838 2.7 76 16.9 101340 84
2009-05-25 11:52 51°14.773 2°50.865 1.9 283 16.9 101340 85
2009-05-25 11:53 51°14.734 2°50.909 2.3 283 17 101340 84
2009-05-25 11:54 51°14.689 2°50.944 1.3 84 17 101340 84
2009-05-25 11:55 51°14.645 2°50.907 1.1 80 17.1 101330 84
2009-05-25 11:56 51°14.6 2°50.844 1.3 80 17.1 101330 84
2009-05-25 11:57 51°14.556 2°50.777 1.6 74 17.2 101330 83
2009-05-25 11:58 51°14.519 2°50.706 1.5 74 17.1 101320 83
2009-05-25 11:59 51°14.489 2°50.628 1.4 83 17.1 101320 83
2009-05-25 12:00 51°14.46 2°50.547 1.5 84 17.1 101310 83
2009-05-25 12:01 51°14.428 2°50.469 1.7 78 17.1 101320 83
2009-05-25 12:02 51°14.394 2°50.389 1.1 83 17.2 101310 83
2009-05-25 12:03 51°14.361 2°50.315 1.6 -999 17.4 101310 83
2009-05-25 12:04 51°14.328 2°50.239 1.5 83 17.5 101310 82
2009-05-25 12:05 51°14.297 2°50.163 1.2 -999 17.7 101310 82
2009-05-25 12:06 51°14.267 2°50.085 1.2 79 17.8 101320 81
2009-05-25 12:07 51°14.238 2°50.009 1.4 84 17.8 101310 78
2009-05-25 12:08 51°14.213 2°49.941 1.4 -999 17.8 101310 78
2009-05-25 12:09 51°14.187 2°49.872 1.4 -999 17.7 101310 78
2009-05-25 12:10 51°14.161 2°49.806 1.9 34 17.6 101310 78
2009-05-25 12:11 51°14.136 2°49.736 1.6 -999 17.6 101310 80
2009-05-25 12:12 51°14.11 2°49.667 1.6 34 17.5 101310 80
2009-05-25 12:13 51°14.085 2°49.597 1.8 -999 17.3 101310 81
2009-05-25 12:14 51°14.061 2°49.526 2.1 39 17.3 101310 82
2009-05-25 12:15 51°14.037 2°49.454 1.7 -999 17.2 101310 83
2009-05-25 12:16 51°14.013 2°49.384 1.8 41 17.1 101310 84
2009-05-25 12:17 51°13.99 2°49.315 1.7 -999 17.1 101310 84
2009-05-25 12:18 51°13.965 2°49.248 1.5 44 17 101310 85
2009-05-25 12:19 51°13.941 2°49.183 1.7 -999 16.9 101300 85
2009-05-25 12:20 51°13.917 2°49.115 1.7 83 16.9 101300 85
2009-05-25 12:21 51°13.892 2°49.048 1.4 -999 16.8 101300 86
2009-05-25 12:22 51°13.867 2°48.982 0.9 74 16.8 101300 86
2009-05-25 12:23 51°13.843 2°48.916 1.3 -999 16.8 101300 87
2009-05-25 12:24 51°13.817 2°48.846 1.1 80 17 101300 88
2009-05-25 12:25 51°13.795 2°48.775 1.7 -999 17.2 101300 87
2009-05-25 12:26 51°13.788 2°48.697 1.6 75 17.4 101300 86
2009-05-25 12:27 51°13.802 2°48.618 2.6 36 17.4 101300 84
2009-05-25 12:28 51°13.841 2°48.552 3.3 26 17.3 101310 84
2009-05-25 12:29 51°13.889 2°48.533 4.2 22 17.2 101310 84
2009-05-25 12:30 51°13.932 2°48.535 4.2 23 17.1 101310 85
2009-05-25 12:31 51°13.97 2°48.549 4.2 22 16.9 101310 87
2009-05-25 12:32 51°14.003 2°48.569 4.5 21 16.9 101320 87
2009-05-25 12:33 51°14.034 2°48.593 4.9 15 16.8 101310 88
2009-05-25 12:34 51°14.062 2°48.621 5.2 15 16.8 101310 88
2009-05-25 12:35 51°14.095 2°48.657 5.2 6 16.8 101320 89
2009-05-25 12:36 51°14.15 2°48.737 7 -999 16.9 101310 88
2009-05-25 12:37 51°14.191 2°48.883 8 -999 17.1 101310 88
2009-05-25 12:38 51°14.234 2°49.05 7.8 279 17.4 101310 86
2009-05-25 12:39 51°14.277 2°49.22 8.4 -999 17.8 101300 83
2009-05-25 12:40 51°14.321 2°49.397 8.6 286 18.1 101300 81
2009-05-25 12:41 51°14.363 2°49.572 9.8 -999 18.3 101290 80
2009-05-25 12:42 51°14.403 2°49.747 7.9 278 18.7 101300 77
2009-05-25 12:43 51°14.455 2°49.912 8.6 -999 18.8 101290 76
2009-05-25 12:44 51°14.534 2°50.043 8.3 348 19 101290 75
2009-05-25 12:45 51°14.594 2°50.199 8.8 -999 19.1 101290 73
2009-05-25 12:46 51°14.616 2°50.373 8.9 283 19.3 101290 73
2009-05-25 12:47 51°14.633 2°50.554 9.3 -999 19.5 101290 72
2009-05-25 12:48 51°14.65 2°50.733 9.3 280 19.6 101290 71
2009-05-25 12:49 51°14.666 2°50.916 8.7 280 19.7 101290 71
2009-05-25 12:50 51°14.681 2°51.096 7.4 279 19.7 101290 71
2009-05-25 12:51 51°14.697 2°51.277 9.2 282 19.6 101290 72
2009-05-25 12:52 51°14.714 2°51.458 8.1 280 19.5 101290 73
2009-05-25 12:53 51°14.74 2°51.633 8.3 279 19.7 101290 72
2009-05-25 12:54 51°14.758 2°51.816 9.9 280 19.9 101290 70
2009-05-25 12:55 51°14.774 2°51.993 7.9 282 20.2 101290 69
2009-05-25 12:56 51°14.791 2°52.174 7.4 285 20.3 101290 68
2009-05-25 12:57 51°14.808 2°52.353 9.4 281 20.4 101280 67
2009-05-25 12:58 51°14.824 2°52.53 8.8 279 20.6 101280 66
2009-05-25 12:59 51°14.838 2°52.709 8.6 278 20.6 101280 66
2009-05-25 13:00 51°14.856 2°52.884 8.2 280 20.7 101280 66
2009-05-25 13:01 51°14.873 2°53.057 8.5 279 20.8 101280 65
2009-05-25 13:02 51°14.885 2°53.221 8.7 281 20.9 101280 65
2009-05-25 13:03 51°14.901 2°53.386 8.6 277 20.9 101290 65
2009-05-25 13:04 51°14.912 2°53.538 7 281 20.9 101280 65
2009-05-25 13:05 51°14.914 2°53.671 7.9 283 21 101280 65
2009-05-25 13:06 51°14.896 2°53.848 9.2 284 21 101280 65
2009-05-25 13:07 51°14.863 2°54.038 9.8 277 21.1 101270 64
2009-05-25 13:08 51°14.796 2°54.215 9.5 277 21.1 101270 64
2009-05-25 13:09 51°14.72 2°54.38 10.8 286 21.2 101260 64
2009-05-25 13:10 51°14.636 2°54.539 8 279 21.4 101250 63
2009-05-25 13:11 51°14.552 2°54.687 10.4 279 21.6 101260 63
2009-05-25 13:12 51°14.472 2°54.855 9.6 280 21.8 101250 61
2009-05-25 13:13 51°14.391 2°55.012 9.4 278 22 101240 60
2009-05-25 13:14 51°14.306 2°55.159 8.9 -999 22.2 101250 60
2009-05-25 13:15 51°14.229 2°55.308 7.9 279 22.3 101250 59
2009-05-25 13:16 51°14.133 2°55.411 8.6 284 22.5 101250 59
2009-05-25 13:17 51°14.023 2°55.491 8.1 279 22.6 101250 58
2009-05-25 13:18 51°13.919 2°55.56 5.6 277 22.7 101250 57
2009-05-25 13:19 51°13.832 2°55.621 8.8 284 22.8 101260 57
2009-05-25 13:20 51°13.766 2°55.684 8.2 279 22.8 101250 56
2009-05-25 13:21 51°13.725 2°55.774 7.3 284 22.8 101260 54
2009-05-25 13:22 51°13.697 2°55.85 7.1 286 22.8 101250 54
2009-05-25 13:23 51°13.675 2°55.911 7.4 285 22.9 101260 54
2009-05-25 13:24 51°13.667 2°55.947 6.2 351 22.9 101250 53
2009-05-25 13:25 51°13.665 2°55.951 4.3 280 22.9 101260 53
2009-05-25 13:26 51°13.662 2°55.956 5.1 284 23 101260 53